KSYN/SYN METAR and TAF weather

Enter ICAO airport designator
Station Type Date Time Source
KSYN METAR 2019/10/07 19:24 UTC NOAA

KSYN 071924Z AUTO 30010G15KT 10SM CLR 18/04 A3013 RMK AO2 T01820042


Station Type Date Time Source
KSYN Decoded METAR 2019/10/07 19:24 UTC NOAA

Stanton, Stanton Airfield, MN, United States (KSYN) 44-28-31N 093-00-58W
Oct 07, 2019 - 03:24 PM EDT / 2019.10.07 1924 UTC
Wind: from the WNW (300 degrees) at 12 MPH (10 KT) gusting to 17 MPH (15 KT):0
Visibility: 10 mile(s):0
Sky conditions: clear
Temperature: 64.8 F (18.2 C)
Dew Point: 39.6 F (4.2 C)
Relative Humidity: 39%
Pressure (altimeter): 30.13 in. Hg (1020 hPa)
ob: KSYN 071924Z AUTO 30010G15KT 10SM CLR 18/04 A3013 RMK AO2 T01820042
cycle: 19

Station Type Date Time Source
KSYN TAF UTC NOAA

Error!

Example: see airport list